LIPR

Federico Fellini International Airport

Airport
ICAO code
LIPR
IATA Code
RMI
Summary
ICAO Region
EUR
ICAO Territory
Location

Miramare, Emilia-Romagna

Serving
Rimini
Elevation
40 ft
Coordinates
44° 1' 13" N , 12° 36' 45" E
KCC
Metar
Observation
LIPR 032020Z AUTO 24003KT 200V330 8000 BKN230/// 05/02 Q1020
Station
Rimini
Date/Time
2023-02-03 20:20:00
Wind direction
240°
Wind speed
03 kts
Lowest cloud amount
broken clouds
Temperature
5°C
Dew point
2°C
Humidity
80%
QNH
1020 hPa
Weather condition
n/a

Federico Fellini International Airport, formerly Rimini Miramare Airport, is an international airport located at Miramare, 3.2 nm to southeast of Rimini, Italy.

Climatology

Humid subtropical climate (Köppen climate classification Cfa)

Runways

Designator Length Width Surface Rops
13/31 2996 45 ASP Yes/Yes

Airport map

Aerial View

SKYbrary Partners:

Safety knowledge contributed by: